sensor_id;sensor_type;location;lat;lon;timestamp;P1;durP1;ratioP1;P2;durP2;ratioP2
7460;SDS011;6757;52.258;12.840;2023-07-22T00:00:03;4.53;;;2.22;;
7460;SDS011;6757;52.258;12.840;2023-07-22T00:02:38;4.38;;;2.33;;
7460;SDS011;6757;52.258;12.840;2023-07-22T00:05:05;5.40;;;2.15;;
7460;SDS011;6757;52.258;12.840;2023-07-22T00:07:33;3.28;;;1.90;;
7460;SDS011;6757;52.258;12.840;2023-07-22T00:10:01;3.67;;;2.15;;
7460;SDS011;6757;52.258;12.840;2023-07-22T00:12:28;5.47;;;2.45;;
7460;SDS011;6757;52.258;12.840;2023-07-22T00:14:55;3.78;;;2.10;;
7460;SDS011;6757;52.258;12.840;2023-07-22T00:17:22;6.30;;;2.38;;
7460;SDS011;6757;52.258;12.840;2023-07-22T00:19:49;5.05;;;2.30;;
7460;SDS011;6757;52.258;12.840;2023-07-22T00:22:16;3.55;;;2.15;;
7460;SDS011;6757;52.258;12.840;2023-07-22T00:24:45;4.68;;;2.30;;
7460;SDS011;6757;52.258;12.840;2023-07-22T00:27:13;4.88;;;2.40;;
7460;SDS011;6757;52.258;12.840;2023-07-22T00:29:40;5.07;;;2.40;;
7460;SDS011;6757;52.258;12.840;2023-07-22T00:32:07;4.20;;;2.30;;
7460;SDS011;6757;52.258;12.840;2023-07-22T00:34:34;8.32;;;2.70;;
7460;SDS011;6757;52.258;12.840;2023-07-22T00:37:02;4.35;;;2.25;;
7460;SDS011;6757;52.258;12.840;2023-07-22T00:39:29;7.05;;;2.90;;
7460;SDS011;6757;52.258;12.840;2023-07-22T00:41:55;4.43;;;2.25;;
7460;SDS011;6757;52.258;12.840;2023-07-22T00:44:24;4.07;;;2.38;;
7460;SDS011;6757;52.258;12.840;2023-07-22T00:46:51;4.35;;;2.42;;
7460;SDS011;6757;52.258;12.840;2023-07-22T00:49:23;2.92;;;2.10;;
7460;SDS011;6757;52.258;12.840;2023-07-22T00:51:52;4.40;;;2.25;;
7460;SDS011;6757;52.258;12.840;2023-07-22T00:54:19;5.82;;;3.05;;
7460;SDS011;6757;52.258;12.840;2023-07-22T00:56:46;4.85;;;2.47;;
7460;SDS011;6757;52.258;12.840;2023-07-22T00:59:14;4.97;;;2.33;;
7460;SDS011;6757;52.258;12.840;2023-07-22T01:01:43;5.03;;;2.35;;
7460;SDS011;6757;52.258;12.840;2023-07-22T01:04:13;4.32;;;2.28;;
7460;SDS011;6757;52.258;12.840;2023-07-22T01:06:42;5.72;;;2.58;;
7460;SDS011;6757;52.258;12.840;2023-07-22T01:09:10;5.18;;;2.53;;
7460;SDS011;6757;52.258;12.840;2023-07-22T01:11:37;5.70;;;2.78;;
7460;SDS011;6757;52.258;12.840;2023-07-22T01:14:04;4.97;;;2.65;;
7460;SDS011;6757;52.258;12.840;2023-07-22T01:16:31;5.68;;;2.78;;
7460;SDS011;6757;52.258;12.840;2023-07-22T01:18:59;6.05;;;2.58;;
7460;SDS011;6757;52.258;12.840;2023-07-22T01:21:26;6.03;;;2.50;;
7460;SDS011;6757;52.258;12.840;2023-07-22T01:23:56;3.42;;;2.22;;
7460;SDS011;6757;52.258;12.840;2023-07-22T01:26:23;3.97;;;2.40;;
7460;SDS011;6757;52.258;12.840;2023-07-22T01:28:51;2.53;;;2.33;;
7460;SDS011;6757;52.258;12.840;2023-07-22T01:31:29;4.32;;;2.60;;
7460;SDS011;6757;52.258;12.840;2023-07-22T01:33:57;7.97;;;3.10;;
7460;SDS011;6757;52.258;12.840;2023-07-22T01:36:24;3.92;;;2.30;;
7460;SDS011;6757;52.258;12.840;2023-07-22T01:38:51;4.82;;;2.50;;
7460;SDS011;6757;52.258;12.840;2023-07-22T01:41:20;5.60;;;2.50;;
7460;SDS011;6757;52.258;12.840;2023-07-22T01:43:47;3.95;;;2.58;;
7460;SDS011;6757;52.258;12.840;2023-07-22T01:46:14;5.72;;;2.58;;
7460;SDS011;6757;52.258;12.840;2023-07-22T01:48:41;3.97;;;2.30;;
7460;SDS011;6757;52.258;12.840;2023-07-22T01:51:08;2.25;;;2.05;;
7460;SDS011;6757;52.258;12.840;2023-07-22T01:53:36;6.90;;;2.47;;
7460;SDS011;6757;52.258;12.840;2023-07-22T01:56:03;5.72;;;2.78;;
7460;SDS011;6757;52.258;12.840;2023-07-22T01:58:32;4.97;;;2.45;;
7460;SDS011;6757;52.258;12.840;2023-07-22T02:00:59;5.22;;;2.53;;
7460;SDS011;6757;52.258;12.840;2023-07-22T02:03:26;4.57;;;2.25;;
7460;SDS011;6757;52.258;12.840;2023-07-22T02:05:53;6.70;;;2.50;;
7460;SDS011;6757;52.258;12.840;2023-07-22T02:08:27;4.55;;;2.30;;
7460;SDS011;6757;52.258;12.840;2023-07-22T02:10:55;4.82;;;2.55;;
7460;SDS011;6757;52.258;12.840;2023-07-22T02:15:54;4.95;;;2.42;;
7460;SDS011;6757;52.258;12.840;2023-07-22T02:18:21;2.10;;;1.88;;
7460;SDS011;6757;52.258;12.840;2023-07-22T02:20:48;3.15;;;2.08;;
7460;SDS011;6757;52.258;12.840;2023-07-22T02:23:15;2.40;;;1.80;;
7460;SDS011;6757;52.258;12.840;2023-07-22T02:25:43;4.05;;;2.30;;
7460;SDS011;6757;52.258;12.840;2023-07-22T02:28:10;2.45;;;1.73;;
7460;SDS011;6757;52.258;12.840;2023-07-22T02:30:37;2.70;;;2.03;;
7460;SDS011;6757;52.258;12.840;2023-07-22T02:33:05;4.93;;;2.05;;
7460;SDS011;6757;52.258;12.840;2023-07-22T02:35:32;3.78;;;2.13;;
7460;SDS011;6757;52.258;12.840;2023-07-22T02:37:59;6.32;;;2.40;;
7460;SDS011;6757;52.258;12.840;2023-07-22T02:40:27;2.60;;;1.70;;
7460;SDS011;6757;52.258;12.840;2023-07-22T02:42:54;2.78;;;1.83;;
7460;SDS011;6757;52.258;12.840;2023-07-22T02:45:21;2.55;;;1.83;;
7460;SDS011;6757;52.258;12.840;2023-07-22T02:47:48;3.28;;;1.88;;
7460;SDS011;6757;52.258;12.840;2023-07-22T02:50:16;2.05;;;1.75;;
7460;SDS011;6757;52.258;12.840;2023-07-22T02:52:44;2.83;;;1.92;;
7460;SDS011;6757;52.258;12.840;2023-07-22T02:55:12;3.40;;;1.73;;
7460;SDS011;6757;52.258;12.840;2023-07-22T02:57:41;2.67;;;1.80;;
7460;SDS011;6757;52.258;12.840;2023-07-22T03:00:08;3.40;;;1.98;;
7460;SDS011;6757;52.258;12.840;2023-07-22T03:02:37;4.32;;;2.22;;
7460;SDS011;6757;52.258;12.840;2023-07-22T03:05:05;3.90;;;1.98;;
7460;SDS011;6757;52.258;12.840;2023-07-22T03:07:36;3.03;;;2.00;;
7460;SDS011;6757;52.258;12.840;2023-07-22T03:10:04;2.47;;;1.50;;
7460;SDS011;6757;52.258;12.840;2023-07-22T03:12:33;1.98;;;1.65;;
7460;SDS011;6757;52.258;12.840;2023-07-22T03:15:00;3.53;;;1.85;;
7460;SDS011;6757;52.258;12.840;2023-07-22T03:17:28;3.55;;;1.90;;
7460;SDS011;6757;52.258;12.840;2023-07-22T03:19:55;2.60;;;2.08;;
7460;SDS011;6757;52.258;12.840;2023-07-22T03:22:22;4.93;;;1.90;;
7460;SDS011;6757;52.258;12.840;2023-07-22T03:24:50;2.20;;;1.80;;
7460;SDS011;6757;52.258;12.840;2023-07-22T03:27:17;3.03;;;1.92;;
7460;SDS011;6757;52.258;12.840;2023-07-22T03:29:44;3.35;;;1.77;;
7460;SDS011;6757;52.258;12.840;2023-07-22T03:32:11;4.03;;;2.10;;
7460;SDS011;6757;52.258;12.840;2023-07-22T03:34:38;2.58;;;1.73;;
7460;SDS011;6757;52.258;12.840;2023-07-22T03:37:06;3.85;;;2.10;;
7460;SDS011;6757;52.258;12.840;2023-07-22T03:39:34;3.15;;;2.15;;
7460;SDS011;6757;52.258;12.840;2023-07-22T03:42:03;2.72;;;1.95;;
7460;SDS011;6757;52.258;12.840;2023-07-22T03:44:31;3.10;;;1.60;;
7460;SDS011;6757;52.258;12.840;2023-07-22T03:46:59;4.90;;;2.30;;
7460;SDS011;6757;52.258;12.840;2023-07-22T03:49:26;3.22;;;2.28;;
7460;SDS011;6757;52.258;12.840;2023-07-22T03:51:53;2.35;;;1.80;;
7460;SDS011;6757;52.258;12.840;2023-07-22T03:54:20;3.25;;;2.20;;
7460;SDS011;6757;52.258;12.840;2023-07-22T03:56:47;2.22;;;1.80;;
7460;SDS011;6757;52.258;12.840;2023-07-22T03:59:15;4.88;;;2.13;;
7460;SDS011;6757;52.258;12.840;2023-07-22T04:01:42;4.60;;;1.92;;
7460;SDS011;6757;52.258;12.840;2023-07-22T04:04:09;5.40;;;2.15;;
7460;SDS011;6757;52.258;12.840;2023-07-22T04:06:36;4.40;;;2.50;;
7460;SDS011;6757;52.258;12.840;2023-07-22T04:09:03;4.03;;;1.88;;
7460;SDS011;6757;52.258;12.840;2023-07-22T04:11:30;4.65;;;2.17;;
7460;SDS011;6757;52.258;12.840;2023-07-22T04:13:57;3.47;;;1.85;;
7460;SDS011;6757;52.258;12.840;2023-07-22T04:16:25;4.75;;;2.25;;
7460;SDS011;6757;52.258;12.840;2023-07-22T04:18:52;2.90;;;2.10;;
7460;SDS011;6757;52.258;12.840;2023-07-22T04:21:20;6.07;;;2.50;;
7460;SDS011;6757;52.258;12.840;2023-07-22T04:23:47;3.08;;;1.75;;
7460;SDS011;6757;52.258;12.840;2023-07-22T04:26:14;3.53;;;2.22;;
7460;SDS011;6757;52.258;12.840;2023-07-22T04:28:41;3.92;;;2.25;;
7460;SDS011;6757;52.258;12.840;2023-07-22T04:31:08;4.53;;;2.60;;
7460;SDS011;6757;52.258;12.840;2023-07-22T04:33:36;6.78;;;2.45;;
7460;SDS011;6757;52.258;12.840;2023-07-22T04:36:03;2.63;;;2.13;;
7460;SDS011;6757;52.258;12.840;2023-07-22T04:38:32;4.70;;;2.40;;
7460;SDS011;6757;52.258;12.840;2023-07-22T04:40:59;6.03;;;2.72;;
7460;SDS011;6757;52.258;12.840;2023-07-22T04:43:27;4.20;;;2.53;;
7460;SDS011;6757;52.258;12.840;2023-07-22T04:45:54;5.63;;;2.65;;
7460;SDS011;6757;52.258;12.840;2023-07-22T04:48:21;7.53;;;2.10;;
7460;SDS011;6757;52.258;12.840;2023-07-22T04:50:50;6.82;;;2.80;;
7460;SDS011;6757;52.258;12.840;2023-07-22T04:53:17;4.57;;;2.67;;
7460;SDS011;6757;52.258;12.840;2023-07-22T04:55:45;7.32;;;2.80;;
7460;SDS011;6757;52.258;12.840;2023-07-22T04:58:12;7.15;;;2.50;;
7460;SDS011;6757;52.258;12.840;2023-07-22T05:00:39;5.25;;;2.53;;
7460;SDS011;6757;52.258;12.840;2023-07-22T05:03:07;5.90;;;2.75;;
7460;SDS011;6757;52.258;12.840;2023-07-22T05:05:34;5.50;;;2.50;;
7460;SDS011;6757;52.258;12.840;2023-07-22T05:08:03;7.75;;;2.67;;
7460;SDS011;6757;52.258;12.840;2023-07-22T05:10:32;8.45;;;3.20;;
7460;SDS011;6757;52.258;12.840;2023-07-22T05:12:59;7.47;;;3.00;;
7460;SDS011;6757;52.258;12.840;2023-07-22T05:15:26;7.72;;;3.17;;
7460;SDS011;6757;52.258;12.840;2023-07-22T05:17:53;9.35;;;3.58;;
7460;SDS011;6757;52.258;12.840;2023-07-22T05:20:20;6.80;;;2.78;;
7460;SDS011;6757;52.258;12.840;2023-07-22T05:22:47;5.72;;;2.70;;
7460;SDS011;6757;52.258;12.840;2023-07-22T05:25:16;9.55;;;2.80;;
7460;SDS011;6757;52.258;12.840;2023-07-22T05:27:43;6.85;;;3.03;;
7460;SDS011;6757;52.258;12.840;2023-07-22T05:30:10;9.23;;;3.08;;
7460;SDS011;6757;52.258;12.840;2023-07-22T05:32:37;11.23;;;3.08;;
7460;SDS011;6757;52.258;12.840;2023-07-22T05:35:04;9.93;;;3.60;;
7460;SDS011;6757;52.258;12.840;2023-07-22T05:37:32;9.07;;;3.22;;
7460;SDS011;6757;52.258;12.840;2023-07-22T05:39:59;7.25;;;3.17;;
7460;SDS011;6757;52.258;12.840;2023-07-22T05:42:28;7.57;;;2.97;;
7460;SDS011;6757;52.258;12.840;2023-07-22T05:44:57;10.70;;;3.40;;
7460;SDS011;6757;52.258;12.840;2023-07-22T05:47:24;9.13;;;3.13;;
7460;SDS011;6757;52.258;12.840;2023-07-22T05:49:51;8.60;;;3.22;;
7460;SDS011;6757;52.258;12.840;2023-07-22T05:52:18;9.48;;;2.90;;
7460;SDS011;6757;52.258;12.840;2023-07-22T05:54:45;6.93;;;2.80;;
7460;SDS011;6757;52.258;12.840;2023-07-22T05:57:12;7.28;;;3.17;;
7460;SDS011;6757;52.258;12.840;2023-07-22T05:59:40;8.60;;;3.00;;
7460;SDS011;6757;52.258;12.840;2023-07-22T06:02:08;5.93;;;2.53;;
7460;SDS011;6757;52.258;12.840;2023-07-22T06:04:35;13.70;;;3.90;;
7460;SDS011;6757;52.258;12.840;2023-07-22T06:07:04;7.80;;;2.95;;
7460;SDS011;6757;52.258;12.840;2023-07-22T06:09:31;6.47;;;3.05;;
7460;SDS011;6757;52.258;12.840;2023-07-22T06:11:58;8.45;;;2.90;;
7460;SDS011;6757;52.258;12.840;2023-07-22T06:14:25;6.65;;;2.85;;
7460;SDS011;6757;52.258;12.840;2023-07-22T06:16:53;8.20;;;2.78;;
7460;SDS011;6757;52.258;12.840;2023-07-22T06:19:20;7.28;;;2.70;;
7460;SDS011;6757;52.258;12.840;2023-07-22T06:21:48;7.43;;;2.63;;
7460;SDS011;6757;52.258;12.840;2023-07-22T06:24:16;10.90;;;3.22;;
7460;SDS011;6757;52.258;12.840;2023-07-22T06:26:42;6.03;;;2.35;;
7460;SDS011;6757;52.258;12.840;2023-07-22T06:29:09;9.77;;;2.80;;
7460;SDS011;6757;52.258;12.840;2023-07-22T06:31:35;7.32;;;2.85;;
7460;SDS011;6757;52.258;12.840;2023-07-22T06:34:04;9.30;;;3.03;;
7460;SDS011;6757;52.258;12.840;2023-07-22T06:36:31;6.97;;;2.80;;
7460;SDS011;6757;52.258;12.840;2023-07-22T06:38:58;8.60;;;3.10;;
7460;SDS011;6757;52.258;12.840;2023-07-22T06:41:25;9.15;;;2.95;;
7460;SDS011;6757;52.258;12.840;2023-07-22T06:43:52;4.55;;;2.53;;
7460;SDS011;6757;52.258;12.840;2023-07-22T06:46:19;8.10;;;3.00;;
7460;SDS011;6757;52.258;12.840;2023-07-22T06:48:46;11.00;;;2.83;;
7460;SDS011;6757;52.258;12.840;2023-07-22T06:51:15;9.10;;;3.55;;
7460;SDS011;6757;52.258;12.840;2023-07-22T06:53:41;7.60;;;2.63;;
7460;SDS011;6757;52.258;12.840;2023-07-22T06:56:08;7.30;;;2.85;;
7460;SDS011;6757;52.258;12.840;2023-07-22T06:58:35;8.23;;;3.25;;
7460;SDS011;6757;52.258;12.840;2023-07-22T07:01:02;9.30;;;3.00;;
7460;SDS011;6757;52.258;12.840;2023-07-22T07:03:30;7.82;;;2.97;;
7460;SDS011;6757;52.258;12.840;2023-07-22T07:05:57;5.25;;;2.63;;
7460;SDS011;6757;52.258;12.840;2023-07-22T07:08:25;7.75;;;2.72;;
7460;SDS011;6757;52.258;12.840;2023-07-22T07:10:52;6.97;;;2.70;;
7460;SDS011;6757;52.258;12.840;2023-07-22T07:13:19;7.78;;;2.75;;
7460;SDS011;6757;52.258;12.840;2023-07-22T07:15:46;7.78;;;3.22;;
7460;SDS011;6757;52.258;12.840;2023-07-22T07:18:14;8.52;;;3.25;;
7460;SDS011;6757;52.258;12.840;2023-07-22T07:20:42;8.73;;;3.03;;
7460;SDS011;6757;52.258;12.840;2023-07-22T07:23:10;9.15;;;3.33;;
7460;SDS011;6757;52.258;12.840;2023-07-22T07:25:38;6.90;;;2.72;;
7460;SDS011;6757;52.258;12.840;2023-07-22T07:28:05;6.40;;;2.55;;
7460;SDS011;6757;52.258;12.840;2023-07-22T07:30:32;7.75;;;2.70;;
7460;SDS011;6757;52.258;12.840;2023-07-22T07:32:59;9.07;;;3.03;;
7460;SDS011;6757;52.258;12.840;2023-07-22T07:35:26;10.60;;;3.20;;
7460;SDS011;6757;52.258;12.840;2023-07-22T07:37:53;8.80;;;3.38;;
7460;SDS011;6757;52.258;12.840;2023-07-22T07:40:19;8.25;;;3.05;;
7460;SDS011;6757;52.258;12.840;2023-07-22T07:42:48;6.25;;;2.50;;
7460;SDS011;6757;52.258;12.840;2023-07-22T07:45:15;7.05;;;2.25;;
7460;SDS011;6757;52.258;12.840;2023-07-22T07:47:42;6.35;;;2.97;;
7460;SDS011;6757;52.258;12.840;2023-07-22T07:50:09;9.57;;;3.20;;
7460;SDS011;6757;52.258;12.840;2023-07-22T07:52:36;5.40;;;2.50;;
7460;SDS011;6757;52.258;12.840;2023-07-22T07:55:04;7.32;;;2.67;;
7460;SDS011;6757;52.258;12.840;2023-07-22T07:57:32;8.27;;;2.83;;
7460;SDS011;6757;52.258;12.840;2023-07-22T08:00:00;6.90;;;2.33;;
7460;SDS011;6757;52.258;12.840;2023-07-22T08:02:28;7.68;;;2.88;;
7460;SDS011;6757;52.258;12.840;2023-07-22T08:04:55;4.93;;;2.67;;
7460;SDS011;6757;52.258;12.840;2023-07-22T08:07:22;8.90;;;3.13;;
7460;SDS011;6757;52.258;12.840;2023-07-22T08:09:49;7.53;;;2.72;;
7460;SDS011;6757;52.258;12.840;2023-07-22T08:12:17;7.97;;;2.97;;
7460;SDS011;6757;52.258;12.840;2023-07-22T08:14:44;7.63;;;2.20;;
7460;SDS011;6757;52.258;12.840;2023-07-22T08:17:13;9.27;;;3.08;;
7460;SDS011;6757;52.258;12.840;2023-07-22T08:19:40;8.57;;;3.20;;
7460;SDS011;6757;52.258;12.840;2023-07-22T08:22:07;7.47;;;2.58;;
7460;SDS011;6757;52.258;12.840;2023-07-22T08:24:33;5.53;;;2.47;;
7460;SDS011;6757;52.258;12.840;2023-07-22T08:27:00;8.65;;;3.15;;
7460;SDS011;6757;52.258;12.840;2023-07-22T08:29:28;6.50;;;2.78;;
7460;SDS011;6757;52.258;12.840;2023-07-22T08:31:55;7.75;;;2.83;;
7460;SDS011;6757;52.258;12.840;2023-07-22T08:34:23;8.00;;;3.00;;
7460;SDS011;6757;52.258;12.840;2023-07-22T08:36:50;7.18;;;2.72;;
7460;SDS011;6757;52.258;12.840;2023-07-22T08:39:17;6.18;;;2.53;;
7460;SDS011;6757;52.258;12.840;2023-07-22T08:41:47;7.03;;;2.78;;
7460;SDS011;6757;52.258;12.840;2023-07-22T08:46:46;7.35;;;2.85;;
7460;SDS011;6757;52.258;12.840;2023-07-22T08:49:13;8.48;;;2.40;;
7460;SDS011;6757;52.258;12.840;2023-07-22T08:51:43;8.48;;;2.80;;
7460;SDS011;6757;52.258;12.840;2023-07-22T08:54:11;9.20;;;2.85;;
7460;SDS011;6757;52.258;12.840;2023-07-22T08:56:40;9.27;;;3.08;;
7460;SDS011;6757;52.258;12.840;2023-07-22T08:59:08;10.30;;;3.10;;
7460;SDS011;6757;52.258;12.840;2023-07-22T09:01:36;7.82;;;2.65;;
7460;SDS011;6757;52.258;12.840;2023-07-22T09:04:04;7.63;;;2.72;;
7460;SDS011;6757;52.258;12.840;2023-07-22T09:06:31;7.13;;;2.72;;
7460;SDS011;6757;52.258;12.840;2023-07-22T09:09:02;6.18;;;2.40;;
7460;SDS011;6757;52.258;12.840;2023-07-22T09:11:33;7.20;;;2.88;;
7460;SDS011;6757;52.258;12.840;2023-07-22T09:14:01;7.03;;;2.83;;
7460;SDS011;6757;52.258;12.840;2023-07-22T09:16:29;7.55;;;2.90;;
7460;SDS011;6757;52.258;12.840;2023-07-22T09:18:57;6.65;;;2.60;;
7460;SDS011;6757;52.258;12.840;2023-07-22T09:21:24;9.82;;;3.45;;
7460;SDS011;6757;52.258;12.840;2023-07-22T09:23:53;7.90;;;3.05;;
7460;SDS011;6757;52.258;12.840;2023-07-22T09:26:21;8.60;;;2.72;;
7460;SDS011;6757;52.258;12.840;2023-07-22T09:28:49;8.10;;;2.50;;
7460;SDS011;6757;52.258;12.840;2023-07-22T09:31:18;9.50;;;3.30;;
7460;SDS011;6757;52.258;12.840;2023-07-22T09:33:46;10.50;;;3.30;;
7460;SDS011;6757;52.258;12.840;2023-07-22T09:36:13;8.30;;;2.70;;
7460;SDS011;6757;52.258;12.840;2023-07-22T09:38:40;9.80;;;3.72;;
7460;SDS011;6757;52.258;12.840;2023-07-22T09:41:08;12.45;;;3.58;;
7460;SDS011;6757;52.258;12.840;2023-07-22T09:43:39;6.70;;;2.50;;
7460;SDS011;6757;52.258;12.840;2023-07-22T09:46:07;6.15;;;2.50;;
7460;SDS011;6757;52.258;12.840;2023-07-22T09:48:39;4.70;;;2.58;;
7460;SDS011;6757;52.258;12.840;2023-07-22T09:51:11;7.45;;;3.15;;
7460;SDS011;6757;52.258;12.840;2023-07-22T09:53:43;7.18;;;3.08;;
7460;SDS011;6757;52.258;12.840;2023-07-22T09:56:12;8.55;;;2.90;;
7460;SDS011;6757;52.258;12.840;2023-07-22T09:58:40;7.80;;;2.47;;
7460;SDS011;6757;52.258;12.840;2023-07-22T10:01:11;7.82;;;2.40;;
7460;SDS011;6757;52.258;12.840;2023-07-22T10:03:42;8.13;;;2.80;;
7460;SDS011;6757;52.258;12.840;2023-07-22T10:06:11;9.38;;;3.10;;
7460;SDS011;6757;52.258;12.840;2023-07-22T10:08:39;7.45;;;2.53;;
7460;SDS011;6757;52.258;12.840;2023-07-22T10:11:09;7.13;;;2.80;;
7460;SDS011;6757;52.258;12.840;2023-07-22T10:13:41;5.82;;;2.58;;
7460;SDS011;6757;52.258;12.840;2023-07-22T10:16:08;8.93;;;2.70;;
7460;SDS011;6757;52.258;12.840;2023-07-22T10:18:35;7.03;;;2.65;;
7460;SDS011;6757;52.258;12.840;2023-07-22T10:21:03;9.90;;;2.72;;
7460;SDS011;6757;52.258;12.840;2023-07-22T10:23:31;6.95;;;2.85;;
7460;SDS011;6757;52.258;12.840;2023-07-22T10:25:58;9.48;;;3.70;;
7460;SDS011;6757;52.258;12.840;2023-07-22T10:28:26;9.02;;;3.10;;
7460;SDS011;6757;52.258;12.840;2023-07-22T10:30:55;6.97;;;2.80;;
7460;SDS011;6757;52.258;12.840;2023-07-22T10:33:23;6.65;;;2.78;;
7460;SDS011;6757;52.258;12.840;2023-07-22T10:36:01;9.27;;;3.20;;
7460;SDS011;6757;52.258;12.840;2023-07-22T10:38:31;10.85;;;2.92;;
7460;SDS011;6757;52.258;12.840;2023-07-22T10:40:58;8.13;;;3.03;;
7460;SDS011;6757;52.258;12.840;2023-07-22T10:43:25;7.38;;;2.70;;
7460;SDS011;6757;52.258;12.840;2023-07-22T10:45:57;7.68;;;2.88;;
7460;SDS011;6757;52.258;12.840;2023-07-22T10:48:34;8.63;;;3.00;;
7460;SDS011;6757;52.258;12.840;2023-07-22T10:51:04;6.75;;;2.30;;
7460;SDS011;6757;52.258;12.840;2023-07-22T10:53:37;9.68;;;3.00;;
7460;SDS011;6757;52.258;12.840;2023-07-22T10:56:12;9.90;;;3.15;;
7460;SDS011;6757;52.258;12.840;2023-07-22T10:59:00;8.25;;;2.78;;
7460;SDS011;6757;52.258;12.840;2023-07-22T11:01:36;5.57;;;2.40;;
7460;SDS011;6757;52.258;12.840;2023-07-22T11:04:07;7.10;;;2.70;;
7460;SDS011;6757;52.258;12.840;2023-07-22T11:06:55;6.45;;;2.80;;
7460;SDS011;6757;52.258;12.840;2023-07-22T11:09:34;7.18;;;3.10;;
7460;SDS011;6757;52.258;12.840;2023-07-22T11:12:04;9.32;;;3.00;;
7460;SDS011;6757;52.258;12.840;2023-07-22T11:14:34;6.55;;;2.78;;
7460;SDS011;6757;52.258;12.840;2023-07-22T11:17:05;10.15;;;2.90;;
7460;SDS011;6757;52.258;12.840;2023-07-22T11:19:34;8.65;;;2.97;;
7460;SDS011;6757;52.258;12.840;2023-07-22T11:22:01;8.48;;;2.97;;
7460;SDS011;6757;52.258;12.840;2023-07-22T11:24:29;7.57;;;2.65;;
7460;SDS011;6757;52.258;12.840;2023-07-22T11:26:59;9.40;;;3.00;;
7460;SDS011;6757;52.258;12.840;2023-07-22T11:29:30;9.25;;;3.15;;
7460;SDS011;6757;52.258;12.840;2023-07-22T11:31:57;7.68;;;2.78;;
7460;SDS011;6757;52.258;12.840;2023-07-22T11:34:26;7.82;;;2.60;;
7460;SDS011;6757;52.258;12.840;2023-07-22T11:36:53;6.80;;;2.58;;
7460;SDS011;6757;52.258;12.840;2023-07-22T11:39:23;6.88;;;2.90;;
7460;SDS011;6757;52.258;12.840;2023-07-22T11:41:54;11.05;;;2.92;;
7460;SDS011;6757;52.258;12.840;2023-07-22T11:44:22;6.63;;;2.60;;
7460;SDS011;6757;52.258;12.840;2023-07-22T11:46:55;6.88;;;3.05;;
7460;SDS011;6757;52.258;12.840;2023-07-22T11:49:26;5.60;;;2.70;;
7460;SDS011;6757;52.258;12.840;2023-07-22T11:51:56;6.65;;;2.83;;
7460;SDS011;6757;52.258;12.840;2023-07-22T11:54:24;7.43;;;2.92;;
7460;SDS011;6757;52.258;12.840;2023-07-22T11:56:52;7.03;;;3.10;;
7460;SDS011;6757;52.258;12.840;2023-07-22T11:59:32;7.28;;;3.00;;
7460;SDS011;6757;52.258;12.840;2023-07-22T12:02:00;6.45;;;2.70;;
7460;SDS011;6757;52.258;12.840;2023-07-22T12:04:32;7.65;;;3.13;;
7460;SDS011;6757;52.258;12.840;2023-07-22T12:06:59;9.10;;;2.95;;
7460;SDS011;6757;52.258;12.840;2023-07-22T12:09:26;9.18;;;3.08;;
7460;SDS011;6757;52.258;12.840;2023-07-22T12:11:56;9.43;;;3.00;;
7460;SDS011;6757;52.258;12.840;2023-07-22T12:14:24;7.57;;;2.63;;
7460;SDS011;6757;52.258;12.840;2023-07-22T12:16:59;7.70;;;3.00;;
7460;SDS011;6757;52.258;12.840;2023-07-22T12:19:27;8.00;;;3.00;;
7460;SDS011;6757;52.258;12.840;2023-07-22T12:21:56;8.82;;;2.75;;
7460;SDS011;6757;52.258;12.840;2023-07-22T12:24:23;10.40;;;2.85;;
7460;SDS011;6757;52.258;12.840;2023-07-22T12:26:50;7.55;;;2.83;;
7460;SDS011;6757;52.258;12.840;2023-07-22T12:29:17;8.35;;;3.30;;
7460;SDS011;6757;52.258;12.840;2023-07-22T12:31:44;9.00;;;2.95;;
7460;SDS011;6757;52.258;12.840;2023-07-22T12:34:11;6.93;;;2.78;;
7460;SDS011;6757;52.258;12.840;2023-07-22T12:36:38;7.53;;;2.83;;
7460;SDS011;6757;52.258;12.840;2023-07-22T12:39:07;8.15;;;2.92;;
7460;SDS011;6757;52.258;12.840;2023-07-22T12:41:34;9.50;;;3.40;;
7460;SDS011;6757;52.258;12.840;2023-07-22T12:44:01;6.05;;;2.42;;
7460;SDS011;6757;52.258;12.840;2023-07-22T12:46:28;7.20;;;3.00;;
7460;SDS011;6757;52.258;12.840;2023-07-22T12:48:55;8.80;;;2.97;;
7460;SDS011;6757;52.258;12.840;2023-07-22T12:51:22;8.90;;;3.33;;
7460;SDS011;6757;52.258;12.840;2023-07-22T12:53:49;7.35;;;3.10;;
7460;SDS011;6757;52.258;12.840;2023-07-22T12:56:17;6.95;;;3.08;;
7460;SDS011;6757;52.258;12.840;2023-07-22T12:58:44;6.85;;;3.28;;
7460;SDS011;6757;52.258;12.840;2023-07-22T13:01:11;9.02;;;3.17;;
7460;SDS011;6757;52.258;12.840;2023-07-22T13:03:38;6.05;;;2.72;;
7460;SDS011;6757;52.258;12.840;2023-07-22T13:06:05;7.03;;;3.10;;
7460;SDS011;6757;52.258;12.840;2023-07-22T13:08:32;6.60;;;2.83;;
7460;SDS011;6757;52.258;12.840;2023-07-22T13:10:59;8.15;;;3.03;;
7460;SDS011;6757;52.258;12.840;2023-07-22T13:13:27;6.85;;;2.67;;
7460;SDS011;6757;52.258;12.840;2023-07-22T13:15:54;6.72;;;2.95;;
7460;SDS011;6757;52.258;12.840;2023-07-22T13:18:21;7.22;;;2.88;;
7460;SDS011;6757;52.258;12.840;2023-07-22T13:20:48;7.55;;;3.20;;
7460;SDS011;6757;52.258;12.840;2023-07-22T13:23:15;8.10;;;2.80;;
7460;SDS011;6757;52.258;12.840;2023-07-22T13:25:42;7.93;;;3.03;;
7460;SDS011;6757;52.258;12.840;2023-07-22T13:28:09;8.15;;;3.10;;
7460;SDS011;6757;52.258;12.840;2023-07-22T13:30:37;6.90;;;2.80;;
7460;SDS011;6757;52.258;12.840;2023-07-22T13:33:04;7.03;;;2.97;;
7460;SDS011;6757;52.258;12.840;2023-07-22T13:35:31;7.15;;;3.53;;
7460;SDS011;6757;52.258;12.840;2023-07-22T13:37:58;7.47;;;2.78;;
7460;SDS011;6757;52.258;12.840;2023-07-22T13:40:25;8.82;;;3.22;;
7460;SDS011;6757;52.258;12.840;2023-07-22T13:42:52;7.22;;;2.72;;
7460;SDS011;6757;52.258;12.840;2023-07-22T13:45:19;8.48;;;3.10;;
7460;SDS011;6757;52.258;12.840;2023-07-22T13:47:47;7.57;;;3.10;;
7460;SDS011;6757;52.258;12.840;2023-07-22T13:50:14;8.20;;;3.28;;
7460;SDS011;6757;52.258;12.840;2023-07-22T13:52:41;7.53;;;3.10;;
7460;SDS011;6757;52.258;12.840;2023-07-22T13:55:08;6.78;;;3.00;;
7460;SDS011;6757;52.258;12.840;2023-07-22T13:57:35;8.63;;;3.40;;
7460;SDS011;6757;52.258;12.840;2023-07-22T14:00:03;9.20;;;3.33;;
7460;SDS011;6757;52.258;12.840;2023-07-22T14:02:33;6.65;;;3.15;;
7460;SDS011;6757;52.258;12.840;2023-07-22T14:05:02;8.98;;;3.28;;
7460;SDS011;6757;52.258;12.840;2023-07-22T14:07:30;8.07;;;2.75;;
7460;SDS011;6757;52.258;12.840;2023-07-22T14:09:56;8.35;;;2.80;;
7460;SDS011;6757;52.258;12.840;2023-07-22T14:12:23;8.27;;;2.97;;
7460;SDS011;6757;52.258;12.840;2023-07-22T14:14:50;7.63;;;3.08;;
7460;SDS011;6757;52.258;12.840;2023-07-22T14:17:17;6.78;;;3.10;;
7460;SDS011;6757;52.258;12.840;2023-07-22T14:19:44;8.13;;;2.92;;
7460;SDS011;6757;52.258;12.840;2023-07-22T14:22:13;7.82;;;2.80;;
7460;SDS011;6757;52.258;12.840;2023-07-22T14:24:39;8.02;;;3.10;;
7460;SDS011;6757;52.258;12.840;2023-07-22T14:27:06;8.10;;;2.80;;
7460;SDS011;6757;52.258;12.840;2023-07-22T14:29:33;5.72;;;2.53;;
7460;SDS011;6757;52.258;12.840;2023-07-22T14:32:00;5.97;;;2.45;;
7460;SDS011;6757;52.258;12.840;2023-07-22T14:34:28;9.40;;;2.88;;
7460;SDS011;6757;52.258;12.840;2023-07-22T14:36:54;7.18;;;2.90;;
7460;SDS011;6757;52.258;12.840;2023-07-22T14:39:23;7.05;;;2.83;;
7460;SDS011;6757;52.258;12.840;2023-07-22T14:41:50;7.00;;;2.78;;
7460;SDS011;6757;52.258;12.840;2023-07-22T14:44:18;6.28;;;2.78;;
7460;SDS011;6757;52.258;12.840;2023-07-22T14:46:45;6.45;;;2.67;;
7460;SDS011;6757;52.258;12.840;2023-07-22T14:49:12;7.85;;;2.65;;
7460;SDS011;6757;52.258;12.840;2023-07-22T14:51:39;7.80;;;2.80;;
7460;SDS011;6757;52.258;12.840;2023-07-22T14:54:06;5.70;;;2.90;;
7460;SDS011;6757;52.258;12.840;2023-07-22T14:56:35;4.88;;;2.50;;
7460;SDS011;6757;52.258;12.840;2023-07-22T14:59:02;5.65;;;2.80;;
7460;SDS011;6757;52.258;12.840;2023-07-22T15:01:36;7.35;;;2.72;;
7460;SDS011;6757;52.258;12.840;2023-07-22T15:04:04;8.30;;;2.88;;
7460;SDS011;6757;52.258;12.840;2023-07-22T15:06:31;6.47;;;2.53;;
7460;SDS011;6757;52.258;12.840;2023-07-22T15:08:58;6.68;;;2.72;;